createdAt,value
2022-12-11T00:02:24.223Z,11.20
2022-12-11T00:05:25.612Z,10.80
2022-12-11T00:08:27.010Z,11.10
2022-12-11T00:11:28.391Z,12.05
2022-12-11T00:14:29.747Z,14.18
2022-12-11T00:17:31.087Z,13.40
2022-12-11T00:20:32.443Z,14.60
2022-12-11T00:23:37.278Z,13.23
2022-12-11T00:29:48.793Z,11.70
2022-12-11T00:36:16.788Z,12.40
2022-12-11T00:42:27.493Z,13.18
2022-12-11T02:54:37.874Z,12.05
2022-12-11T03:01:28.022Z,11.55
2022-12-11T03:04:30.393Z,11.45
2022-12-11T03:10:33.071Z,10.57
2022-12-11T03:13:34.462Z,10.85
2022-12-11T03:31:02.866Z,10.90
2022-12-11T03:37:31.151Z,11.55
2022-12-11T03:47:26.066Z,11.15
2022-12-11T04:00:20.525Z,10.93
2022-12-11T04:06:38.234Z,11.35
2022-12-11T04:13:41.775Z,12.20
2022-12-11T04:23:23.819Z,11.75
2022-12-11T04:29:36.153Z,10.20
2022-12-11T04:32:37.530Z,12.23
2022-12-11T04:35:50.073Z,12.70
2022-12-11T04:42:17.218Z,11.40
2022-12-11T04:45:18.597Z,11.70
2022-12-11T04:51:52.982Z,12.80
2022-12-11T04:54:54.391Z,11.93
2022-12-11T04:57:55.770Z,12.63
2022-12-11T05:04:31.998Z,12.18
2022-12-11T05:07:33.330Z,10.70
2022-12-11T05:14:20.775Z,11.75
2022-12-11T05:17:22.371Z,11.98
2022-12-11T05:20:23.750Z,12.52
2022-12-11T05:23:25.574Z,11.50
2022-12-11T05:32:56.472Z,12.50
2022-12-11T05:35:57.971Z,12.35
2022-12-11T05:39:00.700Z,11.75
2022-12-11T05:42:02.115Z,9.45
2022-12-11T05:45:04.023Z,13.02
2022-12-11T05:48:05.619Z,12.00
2022-12-11T05:54:26.492Z,12.13
2022-12-11T05:57:28.817Z,11.73
2022-12-11T06:00:35.734Z,12.57
2022-12-11T06:06:58.498Z,12.02
2022-12-11T06:09:59.898Z,11.85
2022-12-11T06:13:01.305Z,12.40
2022-12-11T06:16:05.022Z,12.20
2022-12-11T06:19:06.459Z,12.20
2022-12-11T06:25:34.433Z,12.75
2022-12-11T06:28:36.060Z,13.15
2022-12-11T06:31:37.694Z,12.32
2022-12-11T06:38:33.518Z,12.57
2022-12-11T06:41:34.878Z,12.93
2022-12-11T06:44:36.247Z,12.27
2022-12-11T06:51:27.735Z,11.95
2022-12-11T06:54:29.098Z,12.10
2022-12-11T06:57:30.459Z,11.90
2022-12-11T07:00:31.906Z,12.45
2022-12-11T07:03:33.230Z,12.85
2022-12-11T07:06:34.598Z,11.30
2022-12-11T07:09:43.487Z,11.00
2022-12-11T08:17:29.435Z,9.43
2022-12-11T08:51:33.083Z,9.98
2022-12-11T09:08:05.280Z,10.20
2022-12-11T09:14:26.834Z,10.70
2022-12-11T09:17:28.159Z,10.18
2022-12-11T09:20:29.526Z,10.73
2022-12-11T09:23:31.308Z,10.73
2022-12-11T09:33:33.016Z,9.48
2022-12-11T09:36:35.267Z,8.77
2022-12-11T09:42:57.011Z,8.67
2022-12-11T09:46:01.846Z,8.98
2022-12-11T09:49:14.560Z,8.38
2022-12-11T09:59:15.972Z,8.10
2022-12-11T10:19:31.798Z,8.15
2022-12-11T10:22:34.517Z,7.68
2022-12-11T10:32:53.839Z,9.00
2022-12-11T10:35:56.983Z,7.97
2022-12-11T10:38:59.006Z,8.27
2022-12-11T10:48:24.878Z,7.22
2022-12-11T11:01:31.369Z,8.23
2022-12-11T11:18:21.480Z,9.38
2022-12-11T11:21:25.464Z,8.75
2022-12-11T11:24:45.761Z,9.43
2022-12-11T11:45:05.577Z,8.40
2022-12-11T11:55:22.171Z,8.88
2022-12-11T11:58:49.446Z,8.93
2022-12-11T12:01:55.314Z,7.85
2022-12-11T12:04:56.646Z,8.77
2022-12-11T12:08:01.876Z,8.90
2022-12-11T12:15:07.607Z,7.95
2022-12-11T12:18:21.838Z,9.13
2022-12-11T12:21:33.957Z,8.90
2022-12-11T14:16:52.021Z,8.50
2022-12-11T14:19:55.912Z,9.55
2022-12-11T14:23:26.180Z,9.60
2022-12-11T14:26:33.274Z,10.32
2022-12-11T14:29:34.599Z,11.02
2022-12-11T14:32:41.725Z,11.05
2022-12-11T14:35:45.043Z,10.35
2022-12-11T14:42:00.228Z,11.65
2022-12-11T14:45:15.845Z,10.82
2022-12-11T14:48:22.098Z,9.82
2022-12-11T14:51:26.023Z,9.90
2022-12-11T14:54:39.037Z,9.05
2022-12-11T14:57:45.505Z,10.68
2022-12-11T15:01:04.712Z,9.98
2022-12-11T15:04:19.489Z,10.75
2022-12-11T15:07:21.439Z,10.75
2022-12-11T15:10:56.877Z,10.57
2022-12-11T15:14:02.682Z,9.57
2022-12-11T15:17:04.139Z,10.25
2022-12-11T15:20:10.522Z,12.52
2022-12-11T15:23:18.692Z,14.20
2022-12-11T15:26:32.193Z,12.25
2022-12-11T15:29:39.435Z,14.15
2022-12-11T15:32:40.869Z,14.15
2022-12-11T15:35:53.416Z,13.63
2022-12-11T15:38:54.783Z,13.20
2022-12-11T15:41:56.191Z,14.35
2022-12-11T15:44:59.260Z,14.15
2022-12-11T15:48:00.658Z,14.95
2022-12-11T15:51:02.031Z,21.73
2022-12-11T15:54:03.494Z,36.45
2022-12-11T15:57:12.800Z,40.13
2022-12-11T16:00:16.236Z,34.33
2022-12-11T16:06:20.141Z,19.25
2022-12-11T16:09:21.543Z,23.17
2022-12-11T16:12:22.928Z,20.33
2022-12-11T16:15:24.774Z,18.02
2022-12-11T16:18:26.270Z,19.15
2022-12-11T16:21:27.626Z,17.83
2022-12-11T16:24:29.057Z,16.40
2022-12-11T16:27:30.409Z,15.27
2022-12-11T16:30:33.689Z,23.95
2022-12-11T16:36:36.829Z,33.83
2022-12-11T16:39:38.736Z,32.42
2022-12-11T16:42:40.417Z,19.90
2022-12-11T16:45:42.935Z,18.60
2022-12-11T16:48:45.089Z,28.23
2022-12-11T16:51:46.493Z,22.13
2022-12-11T16:54:47.829Z,17.25
2022-12-11T16:57:49.230Z,16.75
2022-12-11T17:00:50.601Z,15.68
2022-12-11T17:03:51.950Z,14.73
2022-12-11T17:06:53.306Z,16.67
2022-12-11T17:09:54.650Z,19.73
2022-12-11T17:12:56.036Z,19.13
2022-12-11T17:15:57.412Z,21.55
2022-12-11T17:18:58.892Z,20.25
2022-12-11T17:22:00.246Z,19.45
2022-12-11T17:25:01.747Z,19.90
2022-12-11T17:28:03.099Z,20.60
2022-12-11T17:31:06.505Z,17.40
2022-12-11T17:34:07.962Z,14.43
2022-12-11T17:37:09.428Z,16.27
2022-12-11T17:40:11.527Z,17.00
2022-12-11T17:43:13.451Z,20.60
2022-12-11T17:46:14.903Z,24.80
2022-12-11T17:49:16.284Z,38.42
2022-12-11T17:52:17.808Z,27.42
2022-12-11T17:55:19.250Z,26.48
2022-12-11T17:58:22.685Z,24.83
2022-12-11T18:04:25.444Z,22.35
2022-12-11T18:07:26.804Z,19.98
2022-12-11T18:10:28.194Z,18.65
2022-12-11T18:13:29.527Z,22.20
2022-12-11T18:16:35.230Z,23.20
2022-12-11T18:19:39.185Z,20.63
2022-12-11T18:22:44.181Z,22.77
2022-12-11T18:25:45.512Z,22.58
2022-12-11T18:28:50.385Z,24.67
2022-12-11T18:31:51.921Z,30.98
2022-12-11T18:34:53.386Z,29.48
2022-12-11T18:37:55.142Z,29.52
2022-12-11T18:40:56.498Z,31.13
2022-12-11T18:44:00.681Z,28.27
2022-12-11T18:47:04.353Z,25.70
2022-12-11T18:50:08.225Z,29.85
2022-12-11T18:53:10.530Z,28.83
2022-12-11T18:56:15.451Z,29.60
2022-12-11T18:59:16.792Z,30.70
2022-12-11T19:02:18.297Z,29.80
2022-12-11T19:05:19.851Z,29.45
2022-12-11T19:08:21.296Z,27.90
2022-12-11T19:11:25.022Z,31.75
2022-12-11T19:14:26.363Z,31.63
2022-12-11T19:17:27.827Z,34.53
2022-12-11T19:20:48.451Z,32.90
2022-12-11T19:23:50.762Z,42.55
2022-12-11T19:26:52.094Z,39.78
2022-12-11T19:29:53.522Z,33.80
2022-12-11T19:32:54.913Z,28.83
2022-12-11T19:36:08.405Z,23.58
2022-12-11T19:39:13.038Z,19.90
2022-12-11T19:42:14.850Z,15.45
2022-12-11T19:45:16.243Z,22.55
2022-12-11T19:48:17.598Z,19.10
2022-12-11T19:51:24.780Z,24.33
2022-12-11T19:54:26.121Z,27.15
2022-12-11T19:57:27.455Z,18.58
2022-12-11T20:00:28.849Z,20.25
2022-12-11T20:03:30.819Z,21.60
2022-12-11T20:06:34.075Z,21.27
2022-12-11T20:09:35.427Z,19.92
2022-12-11T20:12:36.952Z,19.27
2022-12-11T20:15:39.083Z,15.25
2022-12-11T20:18:40.683Z,16.67
2022-12-11T20:21:42.296Z,16.67
2022-12-11T20:24:43.648Z,16.10
2022-12-11T20:27:45.204Z,15.43
2022-12-11T20:30:46.533Z,15.38
2022-12-11T20:33:49.885Z,15.55
2022-12-11T20:36:52.205Z,15.27
2022-12-11T20:39:53.613Z,17.00
2022-12-11T20:42:54.924Z,14.88
2022-12-11T20:45:56.416Z,15.93
2022-12-11T20:48:57.829Z,15.10
2022-12-11T20:51:59.151Z,14.77
2022-12-11T20:55:00.561Z,15.40
2022-12-11T20:58:01.903Z,18.67
2022-12-11T21:01:03.413Z,17.13
2022-12-11T21:04:04.808Z,15.75
2022-12-11T21:07:07.494Z,14.88
2022-12-11T21:10:09.440Z,14.38
2022-12-11T21:13:10.869Z,14.80
2022-12-11T21:16:12.463Z,51.63
2022-12-11T21:19:16.832Z,27.05
2022-12-11T21:22:18.586Z,19.27
2022-12-11T21:25:19.950Z,19.52
2022-12-11T21:28:21.332Z,17.42
2022-12-11T21:31:22.789Z,17.33
2022-12-11T21:34:25.751Z,18.17
2022-12-11T21:37:27.334Z,17.42
2022-12-11T21:40:29.478Z,21.27
2022-12-11T21:43:30.815Z,20.58
2022-12-11T21:46:33.093Z,18.90
2022-12-11T21:49:34.490Z,17.52
2022-12-11T21:52:38.202Z,18.80
2022-12-11T21:55:41.942Z,21.05
2022-12-11T21:58:44.195Z,20.80
2022-12-11T22:01:45.783Z,22.08
2022-12-11T22:04:47.173Z,19.73
2022-12-11T22:07:48.583Z,22.85
2022-12-11T22:10:50.092Z,22.30
2022-12-11T22:13:51.868Z,24.48
2022-12-11T22:16:53.263Z,23.77
2022-12-11T22:19:54.673Z,23.73
2022-12-11T22:22:56.077Z,22.38
2022-12-11T22:25:58.373Z,21.05
2022-12-11T22:28:59.733Z,21.35
2022-12-11T22:32:01.476Z,21.23
2022-12-11T22:35:03.558Z,21.40
2022-12-11T22:38:05.293Z,19.75
2022-12-11T22:41:23.536Z,21.67
2022-12-11T22:44:24.925Z,19.55
2022-12-11T22:47:26.451Z,19.17
2022-12-11T22:50:27.817Z,19.15
2022-12-11T22:53:29.181Z,20.33
2022-12-11T22:56:30.782Z,32.38
2022-12-11T22:59:32.120Z,20.45
2022-12-11T23:02:33.482Z,19.58
2022-12-11T23:05:34.895Z,21.30
2022-12-11T23:08:37.024Z,19.25
2022-12-11T23:11:38.692Z,18.83
2022-12-11T23:14:40.069Z,19.35
2022-12-11T23:17:41.441Z,18.92
2022-12-11T23:20:42.820Z,20.75
2022-12-11T23:23:44.272Z,22.98
2022-12-11T23:26:45.668Z,20.80
2022-12-11T23:29:47.113Z,18.98
2022-12-11T23:32:48.444Z,21.92
2022-12-11T23:35:49.796Z,20.08
2022-12-11T23:38:54.812Z,18.55
2022-12-11T23:41:56.854Z,21.83
2022-12-11T23:44:58.174Z,18.92
2022-12-11T23:47:59.625Z,18.60
2022-12-11T23:51:02.053Z,19.30
2022-12-11T23:54:03.396Z,20.23
2022-12-11T23:57:04.746Z,19.77
